Clear, AK (99704)

1:56 AM AKST on February 25, 2017 (GMT -0900)
TMM Alaska | | Change Station
Active Advisory: Winter Weather Advisory

Elev 361 ft 64.56 °N, 149.10 °W | Updated 8 minutes ago

Overcast
Overcast
32.5 °F
Feels Like 23 °F
N
13.0
Wind Variable Wind from SW

Today
High -- | Low -- °F
--% Chance of Precip.
Yesterday
High -- | Low -- °F
Precip. -- in
Pressure 30.37 in
Visibility 10.0 miles
Clouds Few 5500 ft
Scattered Clouds 7000 ft
Overcast 8500 ft
Windchill 23 °F
Dew Point 26 °F
Humidity 78%
Rainfall 0.00 in
Snow Depth Not available.
8:16 AM 6:03 PM
Waning Crescent, 2% visible
METAR PANN 251053Z AUTO VRB06G17KT 10SM FEW055 SCT070 OVC085 01/M02 A3034 RMK AO2 SLP282 T00061022 TSNO
Pressure 30.37 in
Visibility 10.0 miles
Clouds Few 5500 ft
Scattered Clouds 7000 ft
Overcast 8500 ft
Windchill 23 °F
Dew Point 26 °F
Humidity 78%
Rainfall 0.00 in
Snow Depth Not available.
8:16 AM 6:03 PM
Waning Crescent, 2% visible
METAR PANN 251053Z AUTO VRB06G17KT 10SM FEW055 SCT070 OVC085 01/M02 A3034 RMK AO2 SLP282 T00061022 TSNO

Get Your Daily Forecast Email!

Thanks for signing up!

Be on the lookout for a verification email in your inbox.

You'll start receiving the daily forecast at 8 AM.

×

10-Day Weather Forecast

Almanac

Astronomy

Feb. 25, 2017 Rise Set
Actual Time
Civil Twilight
Nautical Twilight
Astronomical Twilight
Moon
Length of Visible Light
Length of Day
Tomorrow will be .
, % of the Moon is Illuminated

Today's Extremes

State Highs State Lows

Community

WunderPhotos

Upload Photos

1,962,540 photos uploaded!

WunderBlog® & News

Nearby

Air Quality

  Air Quality AQ Index Pollutant
Not available.

Snow Depth

Station Depth Elevation

Earthquake Activity

City Distance Mag. Time & Date
Minimum magnitude displayed is 2.5.

Coastal Water Temperatures

Place Temperature

Stations

Nearby Weather Stations

Station Location Temp. Windchill Dew Point Humidity Wind Precip. Elev Updated Type
                   

Watches & Warnings

Winter Weather Advisory
Issued: 3:45 PM AKST Feb. 24, 2017 – National Weather Service

... Winter Weather Advisory in effect from 9 am Saturday to noon
akst Sunday...

The National Weather Service in Fairbanks has issued a Winter
Weather Advisory for snow which is in effect from 9 am Saturday
to noon akst Sunday. The Winter Storm Watch is no longer in
effect.

* Snow... 4 to 9 inches.

* Timing... snow will develop Saturday morning. Snow will be
heavy at times Saturday evening into early Sunday before
tapering off late Sunday morning.

* Impacts... visibility may be greatly reduced. Travel and
outdoor activities will be difficult.

Precautionary/preparedness actions...

A Winter Weather Advisory means that one or more winter weather
hazards are expected to cause travel difficulties.